createdAt,value
2023-03-07T00:02:32.092Z,2.78
2023-03-07T00:07:00.491Z,2.72
2023-03-07T00:11:07.249Z,2.68
2023-03-07T00:15:11.411Z,2.73
2023-03-07T00:19:14.522Z,2.82
2023-03-07T00:23:43.603Z,2.90
2023-03-07T00:27:46.603Z,2.86
2023-03-07T00:31:49.803Z,2.72
2023-03-07T00:35:57.380Z,2.61
2023-03-07T00:40:57.669Z,2.58
2023-03-07T00:45:00.755Z,2.71
2023-03-07T00:49:16.391Z,2.67
2023-03-07T00:53:19.795Z,2.61
2023-03-07T00:57:27.914Z,2.65
2023-03-07T01:01:31.117Z,2.65
2023-03-07T01:06:27.716Z,2.73
2023-03-07T01:10:33.371Z,2.71
2023-03-07T01:14:51.764Z,2.69
2023-03-07T01:18:58.183Z,2.70
2023-03-07T01:23:01.855Z,2.80
2023-03-07T01:28:05.879Z,2.88
2023-03-07T01:32:08.951Z,2.99
2023-03-07T01:36:30.159Z,2.98
2023-03-07T01:40:33.560Z,2.84
2023-03-07T01:50:25.351Z,2.67
2023-03-07T01:54:31.288Z,2.54
2023-03-07T01:58:38.044Z,2.41
2023-03-07T02:02:44.212Z,2.15
2023-03-07T02:07:17.346Z,2.01
2023-03-07T02:11:20.519Z,1.86
2023-03-07T02:15:23.793Z,1.76
2023-03-07T02:20:21.170Z,1.81
2023-03-07T02:24:34.900Z,1.88
2023-03-07T02:28:40.153Z,1.95
2023-03-07T02:32:43.359Z,1.98
2023-03-07T02:36:48.102Z,2.00
2023-03-07T02:40:53.817Z,1.94
2023-03-07T02:45:02.193Z,1.83
2023-03-07T02:49:06.018Z,1.76
2023-03-07T02:53:09.140Z,1.73
2023-03-07T03:03:16.285Z,1.65
2023-03-07T03:07:19.468Z,1.62
2023-03-07T03:12:14.517Z,1.62
2023-03-07T03:16:17.679Z,1.61
2023-03-07T03:20:21.482Z,1.46
2023-03-07T03:24:24.538Z,1.59
2023-03-07T03:28:27.818Z,1.54
2023-03-07T03:32:30.990Z,1.57
2023-03-07T03:36:34.208Z,1.49
2023-03-07T03:40:38.543Z,1.57
2023-03-07T03:44:41.994Z,1.70
2023-03-07T03:48:45.880Z,1.79
2023-03-07T03:52:49.015Z,1.88
2023-03-07T03:57:19.207Z,1.93
2023-03-07T04:01:24.913Z,1.95
2023-03-07T04:05:27.943Z,1.93
2023-03-07T04:09:34.483Z,2.02
2023-03-07T04:13:37.487Z,2.07
2023-03-07T04:17:40.846Z,2.11
2023-03-07T04:21:44.036Z,2.09
2023-03-07T04:26:20.542Z,2.07
2023-03-07T04:30:23.578Z,2.00
2023-03-07T04:34:31.265Z,2.03
2023-03-07T04:38:34.373Z,2.03
2023-03-07T04:42:38.757Z,2.04
2023-03-07T04:46:41.948Z,2.02
2023-03-07T04:51:39.622Z,1.99
2023-03-07T05:10:51.058Z,1.90
2023-03-07T05:14:55.454Z,2.09
2023-03-07T05:19:25.741Z,2.20
2023-03-07T05:23:30.004Z,2.34
2023-03-07T05:28:37.540Z,2.44
2023-03-07T05:33:54.709Z,2.50
2023-03-07T05:47:53.238Z,2.63
2023-03-07T05:51:56.246Z,2.65
2023-03-07T05:56:01.227Z,2.66
2023-03-07T06:00:11.558Z,2.63
2023-03-07T06:04:14.593Z,2.63
2023-03-07T06:08:17.718Z,2.65
2023-03-07T06:12:22.001Z,2.64
2023-03-07T06:16:25.080Z,2.71
2023-03-07T06:20:28.101Z,2.76
2023-03-07T06:24:46.708Z,2.85
2023-03-07T06:28:50.368Z,3.08
2023-03-07T06:32:53.403Z,3.30
2023-03-07T06:37:01.775Z,3.44
2023-03-07T06:41:05.077Z,3.61
2023-03-07T06:45:08.502Z,3.73
2023-03-07T06:49:11.771Z,3.80
2023-03-07T06:53:14.941Z,3.99
2023-03-07T06:57:19.277Z,4.15
2023-03-07T07:01:23.267Z,4.27
2023-03-07T07:05:26.527Z,4.44
2023-03-07T07:09:29.790Z,4.57
2023-03-07T07:13:33.220Z,4.75
2023-03-07T07:17:36.720Z,4.89
2023-03-07T07:21:39.702Z,4.98
2023-03-07T07:25:42.644Z,5.05
2023-03-07T07:29:45.633Z,5.10
2023-03-07T07:33:48.654Z,5.15
2023-03-07T07:37:51.872Z,5.31
2023-03-07T07:41:54.935Z,5.51
2023-03-07T07:45:58.036Z,5.74
2023-03-07T07:50:52.573Z,5.90
2023-03-07T07:55:21.947Z,6.12
2023-03-07T07:59:24.970Z,6.26
2023-03-07T08:03:28.736Z,6.44
2023-03-07T08:07:31.812Z,6.64
2023-03-07T08:21:43.857Z,7.29
2023-03-07T09:08:57.104Z,7.28
2023-03-07T09:13:00.287Z,7.28
2023-03-07T09:17:04.687Z,7.39
2023-03-07T09:21:08.172Z,7.42
2023-03-07T09:25:11.132Z,7.38
2023-03-07T09:29:14.221Z,7.32
2023-03-07T09:33:17.248Z,7.35
2023-03-07T09:37:20.532Z,7.32
2023-03-07T09:46:45.910Z,7.16
2023-03-07T09:55:40.846Z,7.26
2023-03-07T09:59:51.199Z,7.17
2023-03-07T10:04:07.095Z,7.14
2023-03-07T10:08:15.599Z,7.13
2023-03-07T10:12:27.638Z,7.19
2023-03-07T10:17:02.874Z,7.14
2023-03-07T10:21:12.199Z,7.13
2023-03-07T10:25:31.424Z,7.17
2023-03-07T10:29:45.821Z,7.17
2023-03-07T10:33:51.406Z,7.40
2023-03-07T10:38:00.467Z,7.46
2023-03-07T10:42:04.056Z,7.46
2023-03-07T10:46:25.407Z,7.53
2023-03-07T10:51:07.350Z,7.54
2023-03-07T10:55:35.620Z,7.62
2023-03-07T10:59:41.098Z,7.68
2023-03-07T11:03:54.226Z,7.62
2023-03-07T11:07:59.223Z,7.62
2023-03-07T11:12:05.175Z,7.62
2023-03-07T11:16:16.340Z,7.74
2023-03-07T11:20:25.168Z,7.77
2023-03-07T11:24:30.809Z,7.84
2023-03-07T11:28:35.522Z,7.91
2023-03-07T11:32:44.313Z,7.95
2023-03-07T11:36:56.893Z,7.91
2023-03-07T11:41:29.766Z,7.97
2023-03-07T11:45:56.804Z,8.05
2023-03-07T11:50:19.150Z,8.03
2023-03-07T11:54:45.468Z,7.94
2023-03-07T11:58:59.926Z,7.87
2023-03-07T12:03:21.391Z,7.82
2023-03-07T12:07:27.240Z,7.81
2023-03-07T12:11:42.164Z,7.74
2023-03-07T12:16:00.771Z,7.80
2023-03-07T12:20:30.842Z,7.85
2023-03-07T12:24:46.984Z,7.94
2023-03-07T12:28:55.755Z,8.04
2023-03-07T12:32:59.510Z,8.17
2023-03-07T12:37:33.233Z,8.24
2023-03-07T12:41:50.421Z,8.22
2023-03-07T12:46:07.840Z,8.32
2023-03-07T12:50:46.713Z,8.33
2023-03-07T12:55:27.516Z,8.42
2023-03-07T12:59:37.180Z,8.45
2023-03-07T13:04:27.153Z,8.47
2023-03-07T13:08:31.239Z,8.50
2023-03-07T13:12:36.805Z,8.63
2023-03-07T13:16:45.595Z,8.77
2023-03-07T13:21:07.852Z,8.85
2023-03-07T13:25:19.758Z,8.86
2023-03-07T13:30:00.101Z,8.90
2023-03-07T13:34:41.374Z,8.95
2023-03-07T13:38:44.567Z,9.14
2023-03-07T13:42:49.281Z,9.29
2023-03-07T13:46:55.862Z,9.37
2023-03-07T13:50:58.922Z,9.58
2023-03-07T13:55:04.942Z,9.60
2023-03-07T13:59:14.115Z,9.58
2023-03-07T14:03:35.211Z,9.47
2023-03-07T14:07:41.452Z,9.42
2023-03-07T14:11:50.489Z,9.35
2023-03-07T14:16:25.206Z,9.19
2023-03-07T14:20:56.878Z,8.99
2023-03-07T14:25:03.146Z,8.80
2023-03-07T14:29:22.525Z,8.73
2023-03-07T14:33:37.257Z,8.66
2023-03-07T14:37:40.384Z,8.67
2023-03-07T14:41:49.668Z,8.69
2023-03-07T14:46:12.176Z,8.67
2023-03-07T14:50:21.750Z,8.57
2023-03-07T14:54:32.022Z,8.49
2023-03-07T14:58:37.378Z,8.44
2023-03-07T15:02:55.526Z,8.45
2023-03-07T15:07:01.703Z,8.41
2023-03-07T15:11:23.462Z,8.39
2023-03-07T15:15:35.818Z,8.39
2023-03-07T15:19:54.393Z,8.40
2023-03-07T15:23:58.450Z,8.38
2023-03-07T15:28:08.336Z,8.34
2023-03-07T15:32:47.051Z,8.28
2023-03-07T15:36:50.324Z,8.23
2023-03-07T15:40:53.734Z,8.14
2023-03-07T15:45:02.128Z,8.15
2023-03-07T15:49:05.510Z,8.05
2023-03-07T15:53:27.722Z,7.90
2023-03-07T15:58:00.401Z,7.84
2023-03-07T16:02:35.263Z,7.73
2023-03-07T16:06:38.421Z,7.64
2023-03-07T16:11:05.545Z,7.63
2023-03-07T16:15:14.371Z,7.62
2023-03-07T16:19:18.260Z,7.61
2023-03-07T16:23:21.451Z,7.53
2023-03-07T16:27:27.373Z,7.44
2023-03-07T16:31:30.553Z,7.36
2023-03-07T16:35:33.744Z,7.30
2023-03-07T16:39:38.076Z,7.22
2023-03-07T16:43:41.355Z,7.17
2023-03-07T16:47:45.356Z,7.09
2023-03-07T16:52:04.697Z,6.99
2023-03-07T16:56:13.905Z,6.94
2023-03-07T17:00:23.369Z,6.88
2023-03-07T17:04:26.906Z,6.83
2023-03-07T17:08:30.026Z,6.81
2023-03-07T17:12:34.118Z,6.79
2023-03-07T17:16:44.773Z,6.72
2023-03-07T17:20:48.321Z,6.70
2023-03-07T17:24:51.367Z,6.71
2023-03-07T17:28:57.975Z,6.72
2023-03-07T17:33:01.397Z,6.71
2023-03-07T17:37:05.154Z,6.68
2023-03-07T17:41:08.287Z,6.54
2023-03-07T17:45:13.038Z,6.45
2023-03-07T17:49:16.194Z,6.39
2023-03-07T17:53:19.681Z,6.34
2023-03-07T17:57:23.097Z,6.28
2023-03-07T18:01:26.248Z,6.23
2023-03-07T18:05:29.972Z,6.24
2023-03-07T18:09:33.764Z,6.24
2023-03-07T18:13:37.636Z,6.29
2023-03-07T18:17:47.694Z,6.33
2023-03-07T18:21:52.339Z,6.29
2023-03-07T18:26:00.751Z,6.26
2023-03-07T18:30:05.161Z,6.25
2023-03-07T18:34:09.421Z,6.22
2023-03-07T18:38:12.498Z,6.23
2023-03-07T18:42:15.426Z,6.28
2023-03-07T18:46:20.365Z,6.32
2023-03-07T18:50:23.532Z,6.40
2023-03-07T18:54:26.801Z,6.39
2023-03-07T18:58:30.258Z,6.47
2023-03-07T19:02:33.321Z,6.44
2023-03-07T19:06:39.795Z,6.50
2023-03-07T19:10:43.235Z,6.54
2023-03-07T19:14:46.251Z,6.60
2023-03-07T19:18:50.216Z,6.64
2023-03-07T19:22:53.909Z,6.69
2023-03-07T19:26:57.856Z,6.67
2023-03-07T19:31:28.448Z,6.71
2023-03-07T19:35:31.876Z,6.76
2023-03-07T19:39:35.757Z,6.81
2023-03-07T19:43:38.989Z,6.81
2023-03-07T19:47:41.969Z,6.80
2023-03-07T19:51:45.028Z,6.84
2023-03-07T19:55:48.053Z,6.91
2023-03-07T19:59:53.006Z,6.84
2023-03-07T20:03:56.996Z,6.66
2023-03-07T20:08:00.154Z,6.45
2023-03-07T20:12:03.220Z,5.95
2023-03-07T20:16:09.421Z,5.48
2023-03-07T20:20:13.975Z,5.09
2023-03-07T20:24:18.802Z,4.85
2023-03-07T20:28:22.970Z,4.80
2023-03-07T20:32:26.319Z,4.70
2023-03-07T20:36:34.465Z,4.55
2023-03-07T20:40:38.215Z,4.52
2023-03-07T20:44:41.528Z,4.46
2023-03-07T20:48:45.331Z,4.24
2023-03-07T20:52:49.005Z,4.04
2023-03-07T20:56:52.895Z,3.94
2023-03-07T21:00:57.137Z,3.95
2023-03-07T21:05:00.497Z,3.91
2023-03-07T21:09:23.241Z,3.85
2023-03-07T21:14:06.205Z,3.88
2023-03-07T21:23:54.278Z,3.86
2023-03-07T21:33:34.180Z,3.77
2023-03-07T21:37:37.678Z,3.73
2023-03-07T21:41:47.812Z,3.78
2023-03-07T21:45:50.959Z,3.84
2023-03-07T21:49:55.370Z,3.87
2023-03-07T21:53:58.381Z,3.89
2023-03-07T21:58:01.385Z,3.85
2023-03-07T22:02:04.394Z,3.77
2023-03-07T22:06:09.426Z,3.70
2023-03-07T22:10:12.478Z,3.63
2023-03-07T22:14:25.881Z,3.53
2023-03-07T22:18:28.881Z,3.50
2023-03-07T22:22:49.146Z,3.49
2023-03-07T22:26:52.140Z,3.45
2023-03-07T22:30:55.305Z,3.39
2023-03-07T22:35:23.832Z,3.39
2023-03-07T22:39:27.042Z,3.32
2023-03-07T22:53:05.113Z,3.22
2023-03-07T22:57:35.438Z,3.15
2023-03-07T23:01:38.867Z,3.04
2023-03-07T23:05:41.945Z,2.93
2023-03-07T23:09:45.069Z,2.99
2023-03-07T23:13:48.094Z,2.97
2023-03-07T23:17:51.724Z,2.88
2023-03-07T23:21:54.658Z,2.82
2023-03-07T23:26:00.127Z,2.70
2023-03-07T23:30:05.545Z,2.58
2023-03-07T23:34:20.547Z,2.46
2023-03-07T23:38:23.508Z,2.29
2023-03-07T23:42:40.300Z,2.27
2023-03-07T23:46:43.246Z,2.19
2023-03-07T23:50:48.690Z,2.20
2023-03-07T23:54:51.618Z,2.16
2023-03-07T23:58:54.916Z,2.18
